Huvudsida
METAR-TAF:

METAR-TAF

Flygplatser :

Toulon-Hyères flygplats

Toulon, Frankrike

latitud: 43-06N, longitud: 006-09E, höjd: 3 m

Aktuellt väderrapport

Denna rapport gjordes för 34 minuter sedan, klockan 03:00 UTC
Stilla vind
Temperatur 14°C
Fuktighet 82%
Tryck 1012 hPa
Sikt 10 km eller mer
Inga moln under 1 500 m eller inga cumulonimbus

METAR: LFTH 200300Z AUTO 00000KT CAVOK 14/11 Q1012 NOSIG

Tid: 05:34 (03:34 UTC)

Väderprognos

Denna rapport gjordes för 1 timme och 34 minuter sedan, klockan 02:00 UTC
Prognos gäller från 20 kl. 03 UTC till 21 kl. 03 UTC
Vind 3 kt varierande vindriktning
Sikt 10 km eller mer
Inga moln under 1 500 m eller inga cumulonimbus
Blir
från 20 kl. 10 UTC till 20 kl. 12 UTC
Vind 10 kt från sydväst i byarna ända upp till 20 kt
Blir
från 21 kl. 01 UTC till 21 kl. 03 UTC
Vind 3 kt varierande vindriktning

TAF: LFTH 200200Z 2003/2103 VRB03KT CAVOK BECMG 2010/2012 23010G20KT BECMG 2101/2103 VRB03KT

Aktuella väderrapporter och prognoser från 4000 flygplatser (METAR- och TAF-rapporter).

De tillgängliga stationerna syns som gula och röda prickar på kartan.

För musen över prickarna för att se namnen på stationerna.

Klicka sedan för att få väderrapporter och prognoser.

För att ändra kartan: Klicka på de gröna knapparna med ett svart kors på för att zooma in; den gröna knappen med ett streck på för att zooma ut; eller på de gröna pilarna för angränsande kartor.


METAR-TAF: